sensor_id;sensor_type;location;lat;lon;timestamp;temperature;humidity
22379;DHT22;11357;49.990;7.370;2024-03-29T00:00:08;9.30;78.80
22379;DHT22;11357;49.990;7.370;2024-03-29T00:02:34;9.30;78.80
22379;DHT22;11357;49.990;7.370;2024-03-29T00:05:00;9.30;78.80
22379;DHT22;11357;49.990;7.370;2024-03-29T00:07:26;9.30;79.00
22379;DHT22;11357;49.990;7.370;2024-03-29T00:09:52;9.20;79.10
22379;DHT22;11357;49.990;7.370;2024-03-29T00:12:18;9.30;79.20
22379;DHT22;11357;49.990;7.370;2024-03-29T00:14:43;9.30;79.20
22379;DHT22;11357;49.990;7.370;2024-03-29T00:17:09;9.30;79.20
22379;DHT22;11357;49.990;7.370;2024-03-29T00:19:34;9.30;79.10
22379;DHT22;11357;49.990;7.370;2024-03-29T00:22:00;9.40;79.10
22379;DHT22;11357;49.990;7.370;2024-03-29T00:24:26;9.40;79.10
22379;DHT22;11357;49.990;7.370;2024-03-29T00:26:52;9.40;79.00
22379;DHT22;11357;49.990;7.370;2024-03-29T00:29:18;9.40;78.90
22379;DHT22;11357;49.990;7.370;2024-03-29T00:31:43;9.50;79.00
22379;DHT22;11357;49.990;7.370;2024-03-29T00:34:09;9.40;78.90
22379;DHT22;11357;49.990;7.370;2024-03-29T00:36:34;9.40;79.00
22379;DHT22;11357;49.990;7.370;2024-03-29T00:39:00;9.40;79.20
22379;DHT22;11357;49.990;7.370;2024-03-29T00:41:26;9.40;79.20
22379;DHT22;11357;49.990;7.370;2024-03-29T00:43:51;9.40;79.20
22379;DHT22;11357;49.990;7.370;2024-03-29T00:46:17;9.40;79.20
22379;DHT22;11357;49.990;7.370;2024-03-29T00:48:43;9.40;79.20
22379;DHT22;11357;49.990;7.370;2024-03-29T00:51:12;9.50;79.30
22379;DHT22;11357;49.990;7.370;2024-03-29T00:53:37;9.50;79.40
22379;DHT22;11357;49.990;7.370;2024-03-29T00:56:04;9.50;79.50
22379;DHT22;11357;49.990;7.370;2024-03-29T00:58:30;9.50;79.50
22379;DHT22;11357;49.990;7.370;2024-03-29T01:00:55;9.50;79.40
22379;DHT22;11357;49.990;7.370;2024-03-29T01:03:21;9.50;79.30
22379;DHT22;11357;49.990;7.370;2024-03-29T01:05:46;9.50;80.10
22379;DHT22;11357;49.990;7.370;2024-03-29T01:08:12;9.50;79.40
22379;DHT22;11357;49.990;7.370;2024-03-29T01:10:38;9.50;79.40
22379;DHT22;11357;49.990;7.370;2024-03-29T01:13:03;9.50;79.40
22379;DHT22;11357;49.990;7.370;2024-03-29T01:15:29;9.50;79.40
22379;DHT22;11357;49.990;7.370;2024-03-29T01:17:55;9.60;79.40
22379;DHT22;11357;49.990;7.370;2024-03-29T01:20:20;9.60;79.20
22379;DHT22;11357;49.990;7.370;2024-03-29T01:22:46;9.60;79.20
22379;DHT22;11357;49.990;7.370;2024-03-29T01:25:12;9.70;79.20
22379;DHT22;11357;49.990;7.370;2024-03-29T01:27:39;9.80;79.00
22379;DHT22;11357;49.990;7.370;2024-03-29T01:30:05;9.80;78.80
22379;DHT22;11357;49.990;7.370;2024-03-29T01:32:31;9.80;78.60
22379;DHT22;11357;49.990;7.370;2024-03-29T01:34:57;9.90;78.60
22379;DHT22;11357;49.990;7.370;2024-03-29T01:37:22;9.90;78.50
22379;DHT22;11357;49.990;7.370;2024-03-29T01:39:48;9.90;78.40
22379;DHT22;11357;49.990;7.370;2024-03-29T01:42:14;10.00;78.40
22379;DHT22;11357;49.990;7.370;2024-03-29T01:44:39;10.00;78.30
22379;DHT22;11357;49.990;7.370;2024-03-29T01:47:05;9.90;78.30
22379;DHT22;11357;49.990;7.370;2024-03-29T01:49:31;9.90;78.40
22379;DHT22;11357;49.990;7.370;2024-03-29T01:51:57;9.90;78.50
22379;DHT22;11357;49.990;7.370;2024-03-29T01:54:23;9.90;78.50
22379;DHT22;11357;49.990;7.370;2024-03-29T01:56:48;9.80;78.50
22379;DHT22;11357;49.990;7.370;2024-03-29T01:59:16;9.80;78.60
22379;DHT22;11357;49.990;7.370;2024-03-29T02:01:42;9.80;78.60
22379;DHT22;11357;49.990;7.370;2024-03-29T02:04:09;9.80;78.70
22379;DHT22;11357;49.990;7.370;2024-03-29T02:06:37;9.70;78.70
22379;DHT22;11357;49.990;7.370;2024-03-29T02:09:03;9.70;78.70
22379;DHT22;11357;49.990;7.370;2024-03-29T02:11:29;9.70;78.80
22379;DHT22;11357;49.990;7.370;2024-03-29T02:13:55;9.70;78.70
22379;DHT22;11357;49.990;7.370;2024-03-29T02:16:21;9.70;78.70
22379;DHT22;11357;49.990;7.370;2024-03-29T02:18:47;9.70;78.80
22379;DHT22;11357;49.990;7.370;2024-03-29T02:21:12;9.70;78.80
22379;DHT22;11357;49.990;7.370;2024-03-29T02:23:44;9.80;78.80
22379;DHT22;11357;49.990;7.370;2024-03-29T02:26:12;9.80;78.80
22379;DHT22;11357;49.990;7.370;2024-03-29T02:28:38;9.80;78.70
22379;DHT22;11357;49.990;7.370;2024-03-29T02:31:04;9.80;78.80
22379;DHT22;11357;49.990;7.370;2024-03-29T02:33:30;9.90;78.90
22379;DHT22;11357;49.990;7.370;2024-03-29T02:35:56;9.90;78.90
22379;DHT22;11357;49.990;7.370;2024-03-29T02:38:21;9.90;79.00
22379;DHT22;11357;49.990;7.370;2024-03-29T02:40:47;9.90;79.10
22379;DHT22;11357;49.990;7.370;2024-03-29T02:43:12;9.90;79.00
22379;DHT22;11357;49.990;7.370;2024-03-29T02:45:38;9.90;79.00
22379;DHT22;11357;49.990;7.370;2024-03-29T02:48:04;9.90;79.10
22379;DHT22;11357;49.990;7.370;2024-03-29T02:50:29;9.90;79.10
22379;DHT22;11357;49.990;7.370;2024-03-29T02:52:55;9.90;79.10
22379;DHT22;11357;49.990;7.370;2024-03-29T02:55:21;10.00;79.20
22379;DHT22;11357;49.990;7.370;2024-03-29T02:57:46;10.00;79.30
22379;DHT22;11357;49.990;7.370;2024-03-29T03:00:12;10.00;79.40
22379;DHT22;11357;49.990;7.370;2024-03-29T03:02:39;10.00;79.40
22379;DHT22;11357;49.990;7.370;2024-03-29T03:05:05;10.00;79.30
22379;DHT22;11357;49.990;7.370;2024-03-29T03:07:31;10.00;79.30
22379;DHT22;11357;49.990;7.370;2024-03-29T03:10:16;10.00;79.30
22379;DHT22;11357;49.990;7.370;2024-03-29T03:13:00;10.00;79.30
22379;DHT22;11357;49.990;7.370;2024-03-29T03:15:25;10.00;79.40
22379;DHT22;11357;49.990;7.370;2024-03-29T03:17:51;10.10;79.60
22379;DHT22;11357;49.990;7.370;2024-03-29T03:20:17;10.00;79.50
22379;DHT22;11357;49.990;7.370;2024-03-29T03:22:42;10.00;79.60
22379;DHT22;11357;49.990;7.370;2024-03-29T03:25:08;10.00;80.50
22379;DHT22;11357;49.990;7.370;2024-03-29T03:27:34;10.00;80.00
22379;DHT22;11357;49.990;7.370;2024-03-29T03:29:59;10.00;80.20
22379;DHT22;11357;49.990;7.370;2024-03-29T03:32:25;10.00;80.50
22379;DHT22;11357;49.990;7.370;2024-03-29T03:34:51;9.90;80.80
22379;DHT22;11357;49.990;7.370;2024-03-29T03:37:16;9.90;81.10
22379;DHT22;11357;49.990;7.370;2024-03-29T03:39:42;9.90;81.20
22379;DHT22;11357;49.990;7.370;2024-03-29T03:42:07;9.90;81.40
22379;DHT22;11357;49.990;7.370;2024-03-29T03:44:33;9.90;81.70
22379;DHT22;11357;49.990;7.370;2024-03-29T03:46:59;9.90;81.90
22379;DHT22;11357;49.990;7.370;2024-03-29T03:49:24;9.90;82.10
22379;DHT22;11357;49.990;7.370;2024-03-29T03:51:50;9.90;82.30
22379;DHT22;11357;49.990;7.370;2024-03-29T03:54:16;9.90;82.50
22379;DHT22;11357;49.990;7.370;2024-03-29T03:56:41;9.90;82.70
22379;DHT22;11357;49.990;7.370;2024-03-29T03:59:07;9.90;82.80
22379;DHT22;11357;49.990;7.370;2024-03-29T04:01:34;9.90;83.00
22379;DHT22;11357;49.990;7.370;2024-03-29T04:04:00;9.80;83.20
22379;DHT22;11357;49.990;7.370;2024-03-29T04:06:25;9.80;83.70
22379;DHT22;11357;49.990;7.370;2024-03-29T04:08:51;9.80;84.00
22379;DHT22;11357;49.990;7.370;2024-03-29T04:11:17;9.80;84.10
22379;DHT22;11357;49.990;7.370;2024-03-29T04:13:45;9.80;84.20
22379;DHT22;11357;49.990;7.370;2024-03-29T04:16:11;9.80;84.20
22379;DHT22;11357;49.990;7.370;2024-03-29T04:36:50;10.00;84.70
22379;DHT22;11357;49.990;7.370;2024-03-29T04:54:54;9.80;86.40
22379;DHT22;11357;49.990;7.370;2024-03-29T05:02:42;9.70;87.50
22379;DHT22;11357;49.990;7.370;2024-03-29T05:05:08;9.70;87.90
22379;DHT22;11357;49.990;7.370;2024-03-29T05:15:26;9.80;88.50
22379;DHT22;11357;49.990;7.370;2024-03-29T05:25:53;9.80;88.70
22379;DHT22;11357;49.990;7.370;2024-03-29T05:33:35;9.90;88.90
22379;DHT22;11357;49.990;7.370;2024-03-29T05:36:03;9.90;88.90
22379;DHT22;11357;49.990;7.370;2024-03-29T05:43:41;9.90;89.20
22379;DHT22;11357;49.990;7.370;2024-03-29T05:46:06;9.90;89.20
22379;DHT22;11357;49.990;7.370;2024-03-29T05:56:43;10.00;89.80
22379;DHT22;11357;49.990;7.370;2024-03-29T06:09:36;10.30;89.80
22379;DHT22;11357;49.990;7.370;2024-03-29T06:12:01;10.30;89.80
22379;DHT22;11357;49.990;7.370;2024-03-29T06:14:27;10.40;89.90
22379;DHT22;11357;49.990;7.370;2024-03-29T06:25:17;10.30;90.10
22379;DHT22;11357;49.990;7.370;2024-03-29T06:35:21;10.40;90.30
22379;DHT22;11357;49.990;7.370;2024-03-29T06:53:47;10.80;90.30
22379;DHT22;11357;49.990;7.370;2024-03-29T06:56:13;10.80;90.40
22379;DHT22;11357;49.990;7.370;2024-03-29T07:01:40;10.70;90.50
22379;DHT22;11357;49.990;7.370;2024-03-29T07:04:06;10.70;90.60
22379;DHT22;11357;49.990;7.370;2024-03-29T07:06:32;10.70;90.50
22379;DHT22;11357;49.990;7.370;2024-03-29T07:22:00;11.00;90.60
22379;DHT22;11357;49.990;7.370;2024-03-29T07:24:26;11.00;90.60
22379;DHT22;11357;49.990;7.370;2024-03-29T07:40:10;11.30;90.70
22379;DHT22;11357;49.990;7.370;2024-03-29T07:42:37;11.30;90.60
22379;DHT22;11357;49.990;7.370;2024-03-29T07:45:03;11.50;90.60
22379;DHT22;11357;49.990;7.370;2024-03-29T07:50:07;11.50;90.60
22379;DHT22;11357;49.990;7.370;2024-03-29T07:52:35;11.60;90.50
22379;DHT22;11357;49.990;7.370;2024-03-29T07:55:01;11.70;90.60
22379;DHT22;11357;49.990;7.370;2024-03-29T08:05:20;12.00;90.50
22379;DHT22;11357;49.990;7.370;2024-03-29T08:10:53;12.10;90.50
22379;DHT22;11357;49.990;7.370;2024-03-29T08:13:18;12.10;90.60
22379;DHT22;11357;49.990;7.370;2024-03-29T08:15:46;12.10;90.50
22379;DHT22;11357;49.990;7.370;2024-03-29T08:20:47;12.00;90.70
22379;DHT22;11357;49.990;7.370;2024-03-29T08:23:13;11.90;90.80
22379;DHT22;11357;49.990;7.370;2024-03-29T08:25:39;11.90;90.80
22379;DHT22;11357;49.990;7.370;2024-03-29T08:35:50;12.20;90.80
22379;DHT22;11357;49.990;7.370;2024-03-29T08:43:26;12.20;90.90
22379;DHT22;11357;49.990;7.370;2024-03-29T08:45:52;12.10;91.00
22379;DHT22;11357;49.990;7.370;2024-03-29T09:04:58;12.20;91.30
22379;DHT22;11357;49.990;7.370;2024-03-29T09:15:32;12.70;91.20
22379;DHT22;11357;49.990;7.370;2024-03-29T09:23:02;12.80;91.20
22379;DHT22;11357;49.990;7.370;2024-03-29T09:25:34;13.10;91.20
22379;DHT22;11357;49.990;7.370;2024-03-29T09:28:00;13.30;91.20
22379;DHT22;11357;49.990;7.370;2024-03-29T09:30:25;13.50;91.10
22379;DHT22;11357;49.990;7.370;2024-03-29T09:32:51;13.70;91.00
22379;DHT22;11357;49.990;7.370;2024-03-29T09:35:19;14.00;91.00
22379;DHT22;11357;49.990;7.370;2024-03-29T09:37:45;14.30;90.80
22379;DHT22;11357;49.990;7.370;2024-03-29T09:40:13;14.50;90.50
22379;DHT22;11357;49.990;7.370;2024-03-29T09:42:39;14.50;90.30
22379;DHT22;11357;49.990;7.370;2024-03-29T09:45:06;14.50;90.20
22379;DHT22;11357;49.990;7.370;2024-03-29T09:47:34;14.50;90.20
22379;DHT22;11357;49.990;7.370;2024-03-29T09:50:03;14.60;90.20
22379;DHT22;11357;49.990;7.370;2024-03-29T09:52:33;14.60;90.10
22379;DHT22;11357;49.990;7.370;2024-03-29T09:55:00;14.60;90.10
22379;DHT22;11357;49.990;7.370;2024-03-29T10:00:19;14.60;90.00
22379;DHT22;11357;49.990;7.370;2024-03-29T10:02:45;14.70;90.10
22379;DHT22;11357;49.990;7.370;2024-03-29T10:05:12;14.70;90.00
22379;DHT22;11357;49.990;7.370;2024-03-29T10:10:14;14.80;89.80
22379;DHT22;11357;49.990;7.370;2024-03-29T10:12:39;14.70;89.80
22379;DHT22;11357;49.990;7.370;2024-03-29T10:15:05;14.70;90.00
22379;DHT22;11357;49.990;7.370;2024-03-29T10:17:36;14.70;90.00
22379;DHT22;11357;49.990;7.370;2024-03-29T10:20:05;14.60;90.00
22379;DHT22;11357;49.990;7.370;2024-03-29T10:22:57;14.70;90.50
22379;DHT22;11357;49.990;7.370;2024-03-29T10:25:31;15.00;90.20
22379;DHT22;11357;49.990;7.370;2024-03-29T10:27:56;15.20;89.90
22379;DHT22;11357;49.990;7.370;2024-03-29T10:30:25;15.30;89.60
22379;DHT22;11357;49.990;7.370;2024-03-29T10:32:51;15.40;89.60
22379;DHT22;11357;49.990;7.370;2024-03-29T10:35:16;15.60;89.40
22379;DHT22;11357;49.990;7.370;2024-03-29T10:37:43;15.80;89.30
22379;DHT22;11357;49.990;7.370;2024-03-29T10:40:10;16.30;89.10
22379;DHT22;11357;49.990;7.370;2024-03-29T10:42:39;16.80;88.40
22379;DHT22;11357;49.990;7.370;2024-03-29T10:45:09;17.10;86.90
22379;DHT22;11357;49.990;7.370;2024-03-29T10:47:36;17.10;86.40
22379;DHT22;11357;49.990;7.370;2024-03-29T10:50:02;16.90;86.20
22379;DHT22;11357;49.990;7.370;2024-03-29T10:52:31;16.70;86.40
22379;DHT22;11357;49.990;7.370;2024-03-29T10:54:56;16.50;86.80
22379;DHT22;11357;49.990;7.370;2024-03-29T10:57:24;16.40;87.10
22379;DHT22;11357;49.990;7.370;2024-03-29T11:02:50;16.00;87.60
22379;DHT22;11357;49.990;7.370;2024-03-29T11:05:17;15.60;87.90
22379;DHT22;11357;49.990;7.370;2024-03-29T11:07:44;15.30;88.50
22379;DHT22;11357;49.990;7.370;2024-03-29T11:10:29;15.00;89.10
22379;DHT22;11357;49.990;7.370;2024-03-29T11:15:56;14.60;90.20
22379;DHT22;11357;49.990;7.370;2024-03-29T11:18:23;14.50;90.30
22379;DHT22;11357;49.990;7.370;2024-03-29T11:20:50;14.40;90.30
22379;DHT22;11357;49.990;7.370;2024-03-29T11:23:18;14.30;90.40
22379;DHT22;11357;49.990;7.370;2024-03-29T11:25:52;14.20;90.50
22379;DHT22;11357;49.990;7.370;2024-03-29T11:28:30;14.20;90.70
22379;DHT22;11357;49.990;7.370;2024-03-29T11:31:06;14.10;90.80
22379;DHT22;11357;49.990;7.370;2024-03-29T11:33:44;14.10;90.90
22379;DHT22;11357;49.990;7.370;2024-03-29T11:36:11;14.10;91.00
22379;DHT22;11357;49.990;7.370;2024-03-29T11:38:37;14.10;91.00
22379;DHT22;11357;49.990;7.370;2024-03-29T11:41:14;14.10;91.00
22379;DHT22;11357;49.990;7.370;2024-03-29T11:43:41;14.10;91.10
22379;DHT22;11357;49.990;7.370;2024-03-29T11:46:10;14.10;91.00
22379;DHT22;11357;49.990;7.370;2024-03-29T11:48:36;14.20;91.10
22379;DHT22;11357;49.990;7.370;2024-03-29T11:51:04;14.20;91.10
22379;DHT22;11357;49.990;7.370;2024-03-29T11:53:30;14.20;91.20
22379;DHT22;11357;49.990;7.370;2024-03-29T11:56:00;14.30;91.20
22379;DHT22;11357;49.990;7.370;2024-03-29T11:58:27;14.30;91.20
22379;DHT22;11357;49.990;7.370;2024-03-29T12:00:55;14.30;91.30
22379;DHT22;11357;49.990;7.370;2024-03-29T12:03:22;14.30;91.30
22379;DHT22;11357;49.990;7.370;2024-03-29T12:05:49;14.20;91.40
22379;DHT22;11357;49.990;7.370;2024-03-29T12:08:16;14.20;91.50
22379;DHT22;11357;49.990;7.370;2024-03-29T12:10:42;14.30;91.50
22379;DHT22;11357;49.990;7.370;2024-03-29T12:13:08;14.30;91.50
22379;DHT22;11357;49.990;7.370;2024-03-29T12:15:34;14.30;91.60
22379;DHT22;11357;49.990;7.370;2024-03-29T12:18:04;14.40;91.60
22379;DHT22;11357;49.990;7.370;2024-03-29T12:20:35;14.40;91.70
22379;DHT22;11357;49.990;7.370;2024-03-29T12:23:03;14.40;91.70
22379;DHT22;11357;49.990;7.370;2024-03-29T12:25:30;14.30;91.70
22379;DHT22;11357;49.990;7.370;2024-03-29T12:27:58;14.30;91.70
22379;DHT22;11357;49.990;7.370;2024-03-29T12:30:24;14.20;91.70
22379;DHT22;11357;49.990;7.370;2024-03-29T12:33:28;14.20;91.80
22379;DHT22;11357;49.990;7.370;2024-03-29T12:35:55;14.10;91.90
22379;DHT22;11357;49.990;7.370;2024-03-29T12:38:21;14.00;91.90
22379;DHT22;11357;49.990;7.370;2024-03-29T12:40:49;14.00;92.00
22379;DHT22;11357;49.990;7.370;2024-03-29T12:43:20;13.90;92.10
22379;DHT22;11357;49.990;7.370;2024-03-29T12:45:46;13.90;92.20
22379;DHT22;11357;49.990;7.370;2024-03-29T12:48:14;13.90;92.20
22379;DHT22;11357;49.990;7.370;2024-03-29T12:50:41;13.90;92.30
22379;DHT22;11357;49.990;7.370;2024-03-29T12:53:09;13.90;92.20
22379;DHT22;11357;49.990;7.370;2024-03-29T12:55:35;14.00;92.20
22379;DHT22;11357;49.990;7.370;2024-03-29T12:58:04;14.00;92.30
22379;DHT22;11357;49.990;7.370;2024-03-29T13:00:33;14.20;92.30
22379;DHT22;11357;49.990;7.370;2024-03-29T13:02:59;14.40;92.20
22379;DHT22;11357;49.990;7.370;2024-03-29T13:05:26;14.50;91.90
22379;DHT22;11357;49.990;7.370;2024-03-29T13:07:53;14.70;91.80
22379;DHT22;11357;49.990;7.370;2024-03-29T13:10:19;14.80;91.60
22379;DHT22;11357;49.990;7.370;2024-03-29T13:12:46;15.00;91.40
22379;DHT22;11357;49.990;7.370;2024-03-29T13:15:19;15.10;91.20
22379;DHT22;11357;49.990;7.370;2024-03-29T13:17:47;15.20;91.10
22379;DHT22;11357;49.990;7.370;2024-03-29T13:20:14;15.30;90.90
22379;DHT22;11357;49.990;7.370;2024-03-29T13:22:47;15.40;90.90
22379;DHT22;11357;49.990;7.370;2024-03-29T13:25:17;15.50;90.80
22379;DHT22;11357;49.990;7.370;2024-03-29T13:27:45;15.70;90.70
22379;DHT22;11357;49.990;7.370;2024-03-29T13:30:12;15.90;90.40
22379;DHT22;11357;49.990;7.370;2024-03-29T13:32:41;16.10;90.20
22379;DHT22;11357;49.990;7.370;2024-03-29T13:35:11;16.40;90.10
22379;DHT22;11357;49.990;7.370;2024-03-29T13:37:44;16.70;89.50
22379;DHT22;11357;49.990;7.370;2024-03-29T13:40:13;17.00;88.70
22379;DHT22;11357;49.990;7.370;2024-03-29T13:42:39;17.30;88.10
22379;DHT22;11357;49.990;7.370;2024-03-29T13:45:05;17.50;87.40
22379;DHT22;11357;49.990;7.370;2024-03-29T13:47:38;17.40;86.40
22379;DHT22;11357;49.990;7.370;2024-03-29T13:50:08;17.40;86.60
22379;DHT22;11357;49.990;7.370;2024-03-29T13:52:34;17.40;86.30
22379;DHT22;11357;49.990;7.370;2024-03-29T13:55:01;17.20;86.00
22379;DHT22;11357;49.990;7.370;2024-03-29T13:57:27;17.20;86.10
22379;DHT22;11357;49.990;7.370;2024-03-29T13:59:53;17.20;86.30
22379;DHT22;11357;49.990;7.370;2024-03-29T14:02:19;17.50;86.20
22379;DHT22;11357;49.990;7.370;2024-03-29T14:04:46;17.70;85.90
22379;DHT22;11357;49.990;7.370;2024-03-29T14:07:14;17.80;85.30
22379;DHT22;11357;49.990;7.370;2024-03-29T14:09:46;17.80;85.00
22379;DHT22;11357;49.990;7.370;2024-03-29T14:12:13;17.70;84.80
22379;DHT22;11357;49.990;7.370;2024-03-29T14:14:39;17.70;84.80
22379;DHT22;11357;49.990;7.370;2024-03-29T14:17:05;17.50;84.50
22379;DHT22;11357;49.990;7.370;2024-03-29T14:19:41;17.30;84.80
22379;DHT22;11357;49.990;7.370;2024-03-29T14:22:07;16.90;85.00
22379;DHT22;11357;49.990;7.370;2024-03-29T14:24:34;16.70;85.20
22379;DHT22;11357;49.990;7.370;2024-03-29T14:27:03;16.50;85.60
22379;DHT22;11357;49.990;7.370;2024-03-29T14:29:32;16.30;86.10
22379;DHT22;11357;49.990;7.370;2024-03-29T14:31:58;16.20;86.50
22379;DHT22;11357;49.990;7.370;2024-03-29T14:34:24;16.20;86.90
22379;DHT22;11357;49.990;7.370;2024-03-29T14:36:50;16.20;87.10
22379;DHT22;11357;49.990;7.370;2024-03-29T14:39:16;16.10;87.20
22379;DHT22;11357;49.990;7.370;2024-03-29T14:41:43;16.10;87.50
22379;DHT22;11357;49.990;7.370;2024-03-29T14:44:12;16.00;87.60
22379;DHT22;11357;49.990;7.370;2024-03-29T14:46:38;15.90;87.80
22379;DHT22;11357;49.990;7.370;2024-03-29T14:49:04;15.80;88.00
22379;DHT22;11357;49.990;7.370;2024-03-29T14:51:36;15.70;88.20
22379;DHT22;11357;49.990;7.370;2024-03-29T14:54:02;15.60;88.40
22379;DHT22;11357;49.990;7.370;2024-03-29T14:56:32;15.60;88.60
22379;DHT22;11357;49.990;7.370;2024-03-29T14:59:01;15.60;88.80
22379;DHT22;11357;49.990;7.370;2024-03-29T15:01:27;15.60;89.00
22379;DHT22;11357;49.990;7.370;2024-03-29T15:03:53;15.60;89.00
22379;DHT22;11357;49.990;7.370;2024-03-29T15:06:19;15.60;89.10
22379;DHT22;11357;49.990;7.370;2024-03-29T15:08:47;15.60;89.20
22379;DHT22;11357;49.990;7.370;2024-03-29T15:11:13;15.60;89.20
22379;DHT22;11357;49.990;7.370;2024-03-29T15:13:39;15.70;89.40
22379;DHT22;11357;49.990;7.370;2024-03-29T15:16:05;15.80;89.50
22379;DHT22;11357;49.990;7.370;2024-03-29T15:18:30;15.80;89.50
22379;DHT22;11357;49.990;7.370;2024-03-29T15:20:59;15.80;89.50
22379;DHT22;11357;49.990;7.370;2024-03-29T15:23:26;15.80;89.60
22379;DHT22;11357;49.990;7.370;2024-03-29T15:25:53;15.70;89.70
22379;DHT22;11357;49.990;7.370;2024-03-29T15:28:20;15.60;89.90
22379;DHT22;11357;49.990;7.370;2024-03-29T15:31:11;15.60;90.00
22379;DHT22;11357;49.990;7.370;2024-03-29T15:33:40;15.60;90.00
22379;DHT22;11357;49.990;7.370;2024-03-29T15:36:06;15.60;89.90
22379;DHT22;11357;49.990;7.370;2024-03-29T15:38:34;15.50;89.80
22379;DHT22;11357;49.990;7.370;2024-03-29T15:41:00;15.40;89.90
22379;DHT22;11357;49.990;7.370;2024-03-29T15:43:28;15.40;89.90
22379;DHT22;11357;49.990;7.370;2024-03-29T15:45:55;15.40;89.90
22379;DHT22;11357;49.990;7.370;2024-03-29T15:48:21;15.30;89.80
22379;DHT22;11357;49.990;7.370;2024-03-29T15:50:47;15.30;89.90
22379;DHT22;11357;49.990;7.370;2024-03-29T15:53:13;15.30;89.90
22379;DHT22;11357;49.990;7.370;2024-03-29T15:55:39;15.20;89.80
22379;DHT22;11357;49.990;7.370;2024-03-29T15:58:04;15.10;90.00
22379;DHT22;11357;49.990;7.370;2024-03-29T16:00:30;15.00;90.10
22379;DHT22;11357;49.990;7.370;2024-03-29T16:02:57;15.00;90.20
22379;DHT22;11357;49.990;7.370;2024-03-29T16:05:23;14.90;90.30
22379;DHT22;11357;49.990;7.370;2024-03-29T16:07:49;14.90;90.30
22379;DHT22;11357;49.990;7.370;2024-03-29T16:10:15;15.00;90.30
22379;DHT22;11357;49.990;7.370;2024-03-29T16:12:41;14.90;90.30
22379;DHT22;11357;49.990;7.370;2024-03-29T16:15:06;14.90;90.40
22379;DHT22;11357;49.990;7.370;2024-03-29T16:17:34;14.90;90.50
22379;DHT22;11357;49.990;7.370;2024-03-29T16:20:00;14.90;90.50
22379;DHT22;11357;49.990;7.370;2024-03-29T16:22:25;14.90;90.50
22379;DHT22;11357;49.990;7.370;2024-03-29T16:24:52;15.00;90.50
22379;DHT22;11357;49.990;7.370;2024-03-29T16:27:18;14.90;90.50
22379;DHT22;11357;49.990;7.370;2024-03-29T16:29:43;15.00;90.60
22379;DHT22;11357;49.990;7.370;2024-03-29T16:32:09;15.00;90.60
22379;DHT22;11357;49.990;7.370;2024-03-29T16:34:38;15.00;90.50
22379;DHT22;11357;49.990;7.370;2024-03-29T16:37:04;14.90;90.60
22379;DHT22;11357;49.990;7.370;2024-03-29T16:39:30;14.90;90.60
22379;DHT22;11357;49.990;7.370;2024-03-29T16:41:56;14.90;90.70
22379;DHT22;11357;49.990;7.370;2024-03-29T16:44:22;14.90;90.60
22379;DHT22;11357;49.990;7.370;2024-03-29T16:46:48;14.90;90.60
22379;DHT22;11357;49.990;7.370;2024-03-29T16:49:14;14.90;90.60
22379;DHT22;11357;49.990;7.370;2024-03-29T16:51:40;14.80;90.70
22379;DHT22;11357;49.990;7.370;2024-03-29T16:54:06;14.70;90.70
22379;DHT22;11357;49.990;7.370;2024-03-29T16:56:31;14.70;90.80
22379;DHT22;11357;49.990;7.370;2024-03-29T16:58:57;14.60;90.90
22379;DHT22;11357;49.990;7.370;2024-03-29T17:01:23;14.60;90.90
22379;DHT22;11357;49.990;7.370;2024-03-29T17:03:48;14.50;91.00
22379;DHT22;11357;49.990;7.370;2024-03-29T17:06:14;14.50;91.00
22379;DHT22;11357;49.990;7.370;2024-03-29T17:08:39;14.40;91.00
22379;DHT22;11357;49.990;7.370;2024-03-29T17:11:05;14.40;91.10
22379;DHT22;11357;49.990;7.370;2024-03-29T17:13:31;14.30;91.10
22379;DHT22;11357;49.990;7.370;2024-03-29T17:15:57;14.40;91.10
22379;DHT22;11357;49.990;7.370;2024-03-29T17:18:23;14.40;91.10
22379;DHT22;11357;49.990;7.370;2024-03-29T17:20:51;14.40;91.00
22379;DHT22;11357;49.990;7.370;2024-03-29T17:23:17;14.40;91.00
22379;DHT22;11357;49.990;7.370;2024-03-29T17:25:43;14.40;91.00
22379;DHT22;11357;49.990;7.370;2024-03-29T17:28:08;14.40;91.00
22379;DHT22;11357;49.990;7.370;2024-03-29T17:30:35;14.40;91.00
22379;DHT22;11357;49.990;7.370;2024-03-29T17:33:00;14.50;91.00
22379;DHT22;11357;49.990;7.370;2024-03-29T17:35:26;14.40;91.00
22379;DHT22;11357;49.990;7.370;2024-03-29T17:37:55;14.40;91.00
22379;DHT22;11357;49.990;7.370;2024-03-29T17:41:22;14.30;91.00
22379;DHT22;11357;49.990;7.370;2024-03-29T17:44:54;14.30;91.10
22379;DHT22;11357;49.990;7.370;2024-03-29T17:47:57;14.20;91.10
22379;DHT22;11357;49.990;7.370;2024-03-29T17:50:43;14.20;91.20
22379;DHT22;11357;49.990;7.370;2024-03-29T17:53:09;14.10;91.10
22379;DHT22;11357;49.990;7.370;2024-03-29T17:56:19;14.00;91.20
22379;DHT22;11357;49.990;7.370;2024-03-29T17:59:14;13.90;91.30
22379;DHT22;11357;49.990;7.370;2024-03-29T18:01:41;13.80;91.30
22379;DHT22;11357;49.990;7.370;2024-03-29T18:04:08;13.70;91.40
22379;DHT22;11357;49.990;7.370;2024-03-29T18:06:37;13.70;91.60
22379;DHT22;11357;49.990;7.370;2024-03-29T18:09:03;13.50;91.80
22379;DHT22;11357;49.990;7.370;2024-03-29T18:11:30;13.40;92.00
22379;DHT22;11357;49.990;7.370;2024-03-29T18:13:56;13.30;92.10
22379;DHT22;11357;49.990;7.370;2024-03-29T18:16:22;13.30;92.30
22379;DHT22;11357;49.990;7.370;2024-03-29T18:18:48;13.20;92.30
22379;DHT22;11357;49.990;7.370;2024-03-29T18:21:14;13.20;92.40
22379;DHT22;11357;49.990;7.370;2024-03-29T18:23:40;13.20;92.50
22379;DHT22;11357;49.990;7.370;2024-03-29T18:26:05;13.10;92.60
22379;DHT22;11357;49.990;7.370;2024-03-29T18:28:31;13.10;92.70
22379;DHT22;11357;49.990;7.370;2024-03-29T18:30:57;13.10;92.70
22379;DHT22;11357;49.990;7.370;2024-03-29T18:33:24;13.10;92.70
22379;DHT22;11357;49.990;7.370;2024-03-29T18:35:50;13.20;93.00
22379;DHT22;11357;49.990;7.370;2024-03-29T18:38:25;13.20;92.60
22379;DHT22;11357;49.990;7.370;2024-03-29T18:40:53;13.30;92.60
22379;DHT22;11357;49.990;7.370;2024-03-29T18:43:20;13.30;92.60
22379;DHT22;11357;49.990;7.370;2024-03-29T18:45:46;13.30;92.60
22379;DHT22;11357;49.990;7.370;2024-03-29T18:48:13;13.30;92.50
22379;DHT22;11357;49.990;7.370;2024-03-29T18:50:38;13.30;92.50
22379;DHT22;11357;49.990;7.370;2024-03-29T18:53:04;13.20;92.50
22379;DHT22;11357;49.990;7.370;2024-03-29T18:55:29;13.20;92.60
22379;DHT22;11357;49.990;7.370;2024-03-29T18:57:55;13.10;92.60
22379;DHT22;11357;49.990;7.370;2024-03-29T19:00:21;13.10;92.70
22379;DHT22;11357;49.990;7.370;2024-03-29T19:02:47;13.10;92.70
22379;DHT22;11357;49.990;7.370;2024-03-29T19:05:13;13.00;92.70
22379;DHT22;11357;49.990;7.370;2024-03-29T19:07:39;13.00;92.70
22379;DHT22;11357;49.990;7.370;2024-03-29T19:10:05;12.90;92.80
22379;DHT22;11357;49.990;7.370;2024-03-29T19:12:31;12.90;92.80